sensor_id;sensor_type;location;lat;lon;timestamp;temperature;humidity
67192;HTU21D;54120;53.504;49.426;2023-04-15T00:00:22;-2.23;36.91
67192;HTU21D;54120;53.504;49.426;2023-04-15T00:02:48;-2.28;37.08
67192;HTU21D;54120;53.504;49.426;2023-04-15T00:05:14;-2.31;37.16
67192;HTU21D;54120;53.504;49.426;2023-04-15T00:07:41;-2.35;37.38
67192;HTU21D;54120;53.504;49.426;2023-04-15T00:10:07;-2.39;37.40
67192;HTU21D;54120;53.504;49.426;2023-04-15T00:12:33;-2.42;37.54
67192;HTU21D;54120;53.504;49.426;2023-04-15T00:15:00;-2.47;37.66
67192;HTU21D;54120;53.504;49.426;2023-04-15T00:17:26;-2.44;37.82
67192;HTU21D;54120;53.504;49.426;2023-04-15T00:19:52;-2.47;37.99
67192;HTU21D;54120;53.504;49.426;2023-04-15T00:22:18;-2.50;37.87
67192;HTU21D;54120;53.504;49.426;2023-04-15T00:24:44;-2.51;38.06
67192;HTU21D;54120;53.504;49.426;2023-04-15T00:27:10;-2.59;38.38
67192;HTU21D;54120;53.504;49.426;2023-04-15T00:29:36;-2.60;38.56
67192;HTU21D;54120;53.504;49.426;2023-04-15T00:32:02;-2.63;38.84
67192;HTU21D;54120;53.504;49.426;2023-04-15T00:34:29;-2.67;38.49
67192;HTU21D;54120;53.504;49.426;2023-04-15T00:36:56;-2.69;38.80
67192;HTU21D;54120;53.504;49.426;2023-04-15T00:39:22;-2.74;39.18
67192;HTU21D;54120;53.504;49.426;2023-04-15T00:41:48;-2.80;39.18
67192;HTU21D;54120;53.504;49.426;2023-04-15T00:44:15;-2.88;39.36
67192;HTU21D;54120;53.504;49.426;2023-04-15T00:46:44;-2.91;39.51
67192;HTU21D;54120;53.504;49.426;2023-04-15T00:51:39;-2.91;39.50
67192;HTU21D;54120;53.504;49.426;2023-04-15T00:54:05;-2.98;39.78
67192;HTU21D;54120;53.504;49.426;2023-04-15T00:56:36;-3.04;40.06
67192;HTU21D;54120;53.504;49.426;2023-04-15T00:59:04;-3.05;40.15
67192;HTU21D;54120;53.504;49.426;2023-04-15T01:01:33;-3.09;40.46
67192;HTU21D;54120;53.504;49.426;2023-04-15T01:04:00;-3.13;40.62
67192;HTU21D;54120;53.504;49.426;2023-04-15T01:06:26;-3.18;40.82
67192;HTU21D;54120;53.504;49.426;2023-04-15T01:08:53;-3.18;40.91
67192;HTU21D;54120;53.504;49.426;2023-04-15T01:11:20;-3.23;40.92
67192;HTU21D;54120;53.504;49.426;2023-04-15T01:13:47;-3.26;41.13
67192;HTU21D;54120;53.504;49.426;2023-04-15T01:16:15;-3.30;41.20
67192;HTU21D;54120;53.504;49.426;2023-04-15T01:18:42;-3.30;41.26
67192;HTU21D;54120;53.504;49.426;2023-04-15T01:21:08;-3.33;41.22
67192;HTU21D;54120;53.504;49.426;2023-04-15T01:23:36;-3.37;41.49
67192;HTU21D;54120;53.504;49.426;2023-04-15T01:26:04;-3.36;41.16
67192;HTU21D;54120;53.504;49.426;2023-04-15T01:28:31;-3.36;41.52
67192;HTU21D;54120;53.504;49.426;2023-04-15T01:31:12;-3.39;41.67
67192;HTU21D;54120;53.504;49.426;2023-04-15T01:33:41;-3.46;41.87
67192;HTU21D;54120;53.504;49.426;2023-04-15T01:36:09;-3.43;41.49
67192;HTU21D;54120;53.504;49.426;2023-04-15T01:38:36;-3.45;41.74
67192;HTU21D;54120;53.504;49.426;2023-04-15T01:41:03;-3.50;42.33
67192;HTU21D;54120;53.504;49.426;2023-04-15T01:43:29;-3.49;41.98
67192;HTU21D;54120;53.504;49.426;2023-04-15T01:45:55;-3.49;41.88
67192;HTU21D;54120;53.504;49.426;2023-04-15T01:48:22;-3.47;42.02
67192;HTU21D;54120;53.504;49.426;2023-04-15T01:50:48;-3.51;42.30
67192;HTU21D;54120;53.504;49.426;2023-04-15T01:53:15;-3.50;42.41
67192;HTU21D;54120;53.504;49.426;2023-04-15T01:55:41;-3.51;42.31
67192;HTU21D;54120;53.504;49.426;2023-04-15T01:58:07;-3.53;42.41
67192;HTU21D;54120;53.504;49.426;2023-04-15T02:00:33;-3.54;42.61
67192;HTU21D;54120;53.504;49.426;2023-04-15T02:03:00;-3.56;42.58
67192;HTU21D;54120;53.504;49.426;2023-04-15T02:05:26;-3.55;42.55
67192;HTU21D;54120;53.504;49.426;2023-04-15T02:07:53;-3.55;42.45
67192;HTU21D;54120;53.504;49.426;2023-04-15T02:10:19;-3.55;42.54
67192;HTU21D;54120;53.504;49.426;2023-04-15T02:12:45;-3.39;42.47
67192;HTU21D;54120;53.504;49.426;2023-04-15T02:15:11;-1.93;39.05
67192;HTU21D;54120;53.504;49.426;2023-04-15T02:17:37;-0.73;35.72
67192;HTU21D;54120;53.504;49.426;2023-04-15T02:20:03;-0.22;34.13
67192;HTU21D;54120;53.504;49.426;2023-04-15T02:22:33;0.24;32.93
67192;HTU21D;54120;53.504;49.426;2023-04-15T02:24:59;-0.94;35.40
67192;HTU21D;54120;53.504;49.426;2023-04-15T02:27:25;-2.22;38.95
67192;HTU21D;54120;53.504;49.426;2023-04-15T02:29:53;-2.84;40.97
67192;HTU21D;54120;53.504;49.426;2023-04-15T02:32:19;-3.06;41.61
67192;HTU21D;54120;53.504;49.426;2023-04-15T02:34:48;-3.15;41.62
67192;HTU21D;54120;53.504;49.426;2023-04-15T02:37:14;-3.20;42.20
67192;HTU21D;54120;53.504;49.426;2023-04-15T02:39:41;-3.16;42.26
67192;HTU21D;54120;53.504;49.426;2023-04-15T02:42:07;-3.13;42.13
67192;HTU21D;54120;53.504;49.426;2023-04-15T02:44:33;-3.13;42.13
67192;HTU21D;54120;53.504;49.426;2023-04-15T02:47:01;-3.10;42.16
67192;HTU21D;54120;53.504;49.426;2023-04-15T02:49:28;-3.07;41.97
67192;HTU21D;54120;53.504;49.426;2023-04-15T02:51:55;-3.03;42.03
67192;HTU21D;54120;53.504;49.426;2023-04-15T02:54:23;-2.95;41.84
67192;HTU21D;54120;53.504;49.426;2023-04-15T02:56:49;-2.95;41.36
67192;HTU21D;54120;53.504;49.426;2023-04-15T02:59:15;-2.08;39.44
67192;HTU21D;54120;53.504;49.426;2023-04-15T03:01:41;0.21;33.38
67192;HTU21D;54120;53.504;49.426;2023-04-15T03:04:08;1.24;30.70
67192;HTU21D;54120;53.504;49.426;2023-04-15T03:06:34;1.99;29.13
67192;HTU21D;54120;53.504;49.426;2023-04-15T03:09:00;2.51;27.52
67192;HTU21D;54120;53.504;49.426;2023-04-15T03:11:28;3.34;26.42
67192;HTU21D;54120;53.504;49.426;2023-04-15T03:13:54;3.43;25.91
67192;HTU21D;54120;53.504;49.426;2023-04-15T03:16:20;2.87;27.14
67192;HTU21D;54120;53.504;49.426;2023-04-15T03:18:47;2.61;27.49
67192;HTU21D;54120;53.504;49.426;2023-04-15T03:21:17;3.02;26.81
67192;HTU21D;54120;53.504;49.426;2023-04-15T03:23:45;3.32;26.01
67192;HTU21D;54120;53.504;49.426;2023-04-15T03:26:26;3.47;26.11
67192;HTU21D;54120;53.504;49.426;2023-04-15T03:28:53;3.28;25.94
67192;HTU21D;54120;53.504;49.426;2023-04-15T03:31:19;3.24;26.60
67192;HTU21D;54120;53.504;49.426;2023-04-15T03:33:45;3.17;26.82
67192;HTU21D;54120;53.504;49.426;2023-04-15T03:36:12;3.28;26.47
67192;HTU21D;54120;53.504;49.426;2023-04-15T03:38:38;3.89;25.46
67192;HTU21D;54120;53.504;49.426;2023-04-15T03:41:04;3.31;26.17
67192;HTU21D;54120;53.504;49.426;2023-04-15T03:43:30;3.70;26.42
67192;HTU21D;54120;53.504;49.426;2023-04-15T03:45:56;4.75;23.99
67192;HTU21D;54120;53.504;49.426;2023-04-15T03:48:22;4.66;23.91
67192;HTU21D;54120;53.504;49.426;2023-04-15T03:50:49;5.24;23.17
67192;HTU21D;54120;53.504;49.426;2023-04-15T03:53:15;4.82;23.14
67192;HTU21D;54120;53.504;49.426;2023-04-15T03:55:41;4.33;23.99
67192;HTU21D;54120;53.504;49.426;2023-04-15T03:58:07;4.48;23.27
67192;HTU21D;54120;53.504;49.426;2023-04-15T04:00:34;4.32;24.03
67192;HTU21D;54120;53.504;49.426;2023-04-15T04:03:00;5.54;22.20
67192;HTU21D;54120;53.504;49.426;2023-04-15T04:05:26;4.63;23.01
67192;HTU21D;54120;53.504;49.426;2023-04-15T04:07:52;4.18;24.09
67192;HTU21D;54120;53.504;49.426;2023-04-15T04:10:18;5.34;22.08
67192;HTU21D;54120;53.504;49.426;2023-04-15T04:12:44;5.09;22.03
67192;HTU21D;54120;53.504;49.426;2023-04-15T04:15:10;5.04;22.21
67192;HTU21D;54120;53.504;49.426;2023-04-15T04:17:37;5.71;21.25
67192;HTU21D;54120;53.504;49.426;2023-04-15T04:20:03;5.40;21.89
67192;HTU21D;54120;53.504;49.426;2023-04-15T04:22:30;6.15;20.70
67192;HTU21D;54120;53.504;49.426;2023-04-15T04:24:56;5.89;21.01
67192;HTU21D;54120;53.504;49.426;2023-04-15T04:27:24;6.04;20.79
67192;HTU21D;54120;53.504;49.426;2023-04-15T04:29:50;7.10;18.92
67192;HTU21D;54120;53.504;49.426;2023-04-15T04:32:16;4.15;23.37
67192;HTU21D;54120;53.504;49.426;2023-04-15T04:34:43;4.20;23.22
67192;HTU21D;54120;53.504;49.426;2023-04-15T04:37:09;4.15;23.97
67192;HTU21D;54120;53.504;49.426;2023-04-15T04:39:35;6.58;20.03
67192;HTU21D;54120;53.504;49.426;2023-04-15T04:42:01;6.40;20.02
67192;HTU21D;54120;53.504;49.426;2023-04-15T04:44:27;7.18;20.05
67192;HTU21D;54120;53.504;49.426;2023-04-15T04:46:53;6.58;19.45
67192;HTU21D;54120;53.504;49.426;2023-04-15T04:49:19;5.57;20.87
67192;HTU21D;54120;53.504;49.426;2023-04-15T04:51:46;4.73;22.31
67192;HTU21D;54120;53.504;49.426;2023-04-15T04:54:13;5.97;20.95
67192;HTU21D;54120;53.504;49.426;2023-04-15T04:56:39;7.12;19.00
67192;HTU21D;54120;53.504;49.426;2023-04-15T04:59:05;7.14;19.31
67192;HTU21D;54120;53.504;49.426;2023-04-15T05:01:32;8.32;17.98
67192;HTU21D;54120;53.504;49.426;2023-04-15T05:03:59;7.78;17.96
67192;HTU21D;54120;53.504;49.426;2023-04-15T05:06:25;7.56;18.41
67192;HTU21D;54120;53.504;49.426;2023-04-15T05:08:51;7.56;18.53
67192;HTU21D;54120;53.504;49.426;2023-04-15T05:11:17;7.53;18.66
67192;HTU21D;54120;53.504;49.426;2023-04-15T05:13:43;7.57;18.22
67192;HTU21D;54120;53.504;49.426;2023-04-15T05:16:09;6.46;19.66
67192;HTU21D;54120;53.504;49.426;2023-04-15T05:18:35;6.25;20.47
67192;HTU21D;54120;53.504;49.426;2023-04-15T05:21:02;7.56;18.37
67192;HTU21D;54120;53.504;49.426;2023-04-15T05:23:28;7.68;18.38
67192;HTU21D;54120;53.504;49.426;2023-04-15T05:25:55;7.54;18.57
67192;HTU21D;54120;53.504;49.426;2023-04-15T05:28:21;7.63;18.59
67192;HTU21D;54120;53.504;49.426;2023-04-15T05:30:47;6.81;18.70
67192;HTU21D;54120;53.504;49.426;2023-04-15T05:33:13;6.10;20.76
67192;HTU21D;54120;53.504;49.426;2023-04-15T05:35:39;6.65;19.57
67192;HTU21D;54120;53.504;49.426;2023-04-15T05:38:06;6.52;20.45
67192;HTU21D;54120;53.504;49.426;2023-04-15T05:40:32;7.01;20.19
67192;HTU21D;54120;53.504;49.426;2023-04-15T05:42:58;7.63;18.21
67192;HTU21D;54120;53.504;49.426;2023-04-15T05:45:24;7.00;19.51
67192;HTU21D;54120;53.504;49.426;2023-04-15T05:47:50;7.13;18.94
67192;HTU21D;54120;53.504;49.426;2023-04-15T05:50:19;6.72;20.42
67192;HTU21D;54120;53.504;49.426;2023-04-15T05:52:46;7.28;19.55
67192;HTU21D;54120;53.504;49.426;2023-04-15T05:55:12;7.09;19.18
67192;HTU21D;54120;53.504;49.426;2023-04-15T05:57:39;6.69;20.07
67192;HTU21D;54120;53.504;49.426;2023-04-15T06:00:05;6.84;20.15
67192;HTU21D;54120;53.504;49.426;2023-04-15T06:02:32;7.68;18.60
67192;HTU21D;54120;53.504;49.426;2023-04-15T06:04:58;7.82;18.55
67192;HTU21D;54120;53.504;49.426;2023-04-15T06:07:24;7.42;19.11
67192;HTU21D;54120;53.504;49.426;2023-04-15T06:09:50;8.72;17.48
67192;HTU21D;54120;53.504;49.426;2023-04-15T06:12:16;9.54;15.82
67192;HTU21D;54120;53.504;49.426;2023-04-15T06:14:42;8.68;16.40
67192;HTU21D;54120;53.504;49.426;2023-04-15T06:17:09;7.91;16.86
67192;HTU21D;54120;53.504;49.426;2023-04-15T06:19:35;7.28;18.13
67192;HTU21D;54120;53.504;49.426;2023-04-15T06:22:02;6.87;18.30
67192;HTU21D;54120;53.504;49.426;2023-04-15T06:24:28;6.98;18.51
67192;HTU21D;54120;53.504;49.426;2023-04-15T06:26:54;8.14;17.11
67192;HTU21D;54120;53.504;49.426;2023-04-15T06:29:21;7.09;18.16
67192;HTU21D;54120;53.504;49.426;2023-04-15T06:31:48;6.28;19.11
67192;HTU21D;54120;53.504;49.426;2023-04-15T06:34:14;6.54;18.80
67192;HTU21D;54120;53.504;49.426;2023-04-15T06:36:40;8.13;16.76
67192;HTU21D;54120;53.504;49.426;2023-04-15T06:39:06;7.94;17.57
67192;HTU21D;54120;53.504;49.426;2023-04-15T06:41:32;7.39;17.42
67192;HTU21D;54120;53.504;49.426;2023-04-15T06:43:59;6.01;20.06
67192;HTU21D;54120;53.504;49.426;2023-04-15T06:46:25;6.88;17.90
67192;HTU21D;54120;53.504;49.426;2023-04-15T06:48:51;5.94;20.25
67192;HTU21D;54120;53.504;49.426;2023-04-15T06:51:17;6.59;20.01
67192;HTU21D;54120;53.504;49.426;2023-04-15T06:53:44;7.67;18.09
67192;HTU21D;54120;53.504;49.426;2023-04-15T06:56:10;7.37;18.06
67192;HTU21D;54120;53.504;49.426;2023-04-15T06:58:36;7.03;18.79
67192;HTU21D;54120;53.504;49.426;2023-04-15T07:01:02;7.09;19.34
67192;HTU21D;54120;53.504;49.426;2023-04-15T07:03:29;8.41;16.74
67192;HTU21D;54120;53.504;49.426;2023-04-15T07:05:55;8.34;16.55
67192;HTU21D;54120;53.504;49.426;2023-04-15T07:08:21;9.72;15.77
67192;HTU21D;54120;53.504;49.426;2023-04-15T07:10:48;10.15;13.54
67192;HTU21D;54120;53.504;49.426;2023-04-15T07:13:14;10.23;13.69
67192;HTU21D;54120;53.504;49.426;2023-04-15T07:15:40;9.30;14.51
67192;HTU21D;54120;53.504;49.426;2023-04-15T07:18:06;9.12;15.06
67192;HTU21D;54120;53.504;49.426;2023-04-15T07:20:32;8.47;15.48
67192;HTU21D;54120;53.504;49.426;2023-04-15T07:22:58;8.35;15.56
67192;HTU21D;54120;53.504;49.426;2023-04-15T07:25:24;8.03;15.01
67192;HTU21D;54120;53.504;49.426;2023-04-15T07:27:51;7.61;15.92
67192;HTU21D;54120;53.504;49.426;2023-04-15T07:30:18;7.23;15.97
67192;HTU21D;54120;53.504;49.426;2023-04-15T07:32:44;7.53;14.49
67192;HTU21D;54120;53.504;49.426;2023-04-15T07:35:10;7.91;14.39
67192;HTU21D;54120;53.504;49.426;2023-04-15T07:37:37;8.14;14.84
67192;HTU21D;54120;53.504;49.426;2023-04-15T07:40:03;7.27;15.62
67192;HTU21D;54120;53.504;49.426;2023-04-15T07:42:30;7.12;15.74
67192;HTU21D;54120;53.504;49.426;2023-04-15T07:44:56;6.24;17.83
67192;HTU21D;54120;53.504;49.426;2023-04-15T07:47:22;4.37;20.56
67192;HTU21D;54120;53.504;49.426;2023-04-15T07:49:48;4.18;20.89
67192;HTU21D;54120;53.504;49.426;2023-04-15T07:52:16;4.07;20.50
67192;HTU21D;54120;53.504;49.426;2023-04-15T07:54:42;4.28;20.79
67192;HTU21D;54120;53.504;49.426;2023-04-15T07:57:08;4.50;21.85
67192;HTU21D;54120;53.504;49.426;2023-04-15T07:59:34;5.10;20.89
67192;HTU21D;54120;53.504;49.426;2023-04-15T08:02:00;4.75;21.06
67192;HTU21D;54120;53.504;49.426;2023-04-15T08:04:27;4.71;20.76
67192;HTU21D;54120;53.504;49.426;2023-04-15T08:06:53;4.36;20.05
67192;HTU21D;54120;53.504;49.426;2023-04-15T08:09:19;4.26;20.76
67192;HTU21D;54120;53.504;49.426;2023-04-15T08:11:48;4.22;21.66
67192;HTU21D;54120;53.504;49.426;2023-04-15T08:14:15;4.74;21.31
67192;HTU21D;54120;53.504;49.426;2023-04-15T08:16:41;4.49;19.20
67192;HTU21D;54120;53.504;49.426;2023-04-15T08:19:07;4.57;19.28
67192;HTU21D;54120;53.504;49.426;2023-04-15T08:21:34;4.81;18.88
67192;HTU21D;54120;53.504;49.426;2023-04-15T08:24:00;4.60;19.30
67192;HTU21D;54120;53.504;49.426;2023-04-15T08:26:26;4.68;19.81
67192;HTU21D;54120;53.504;49.426;2023-04-15T08:28:52;4.82;18.86
67192;HTU21D;54120;53.504;49.426;2023-04-15T08:31:18;4.78;18.85
67192;HTU21D;54120;53.504;49.426;2023-04-15T08:33:48;5.10;17.72
67192;HTU21D;54120;53.504;49.426;2023-04-15T08:36:17;5.22;17.98
67192;HTU21D;54120;53.504;49.426;2023-04-15T08:38:43;5.31;18.30
67192;HTU21D;54120;53.504;49.426;2023-04-15T08:41:22;5.62;17.86
67192;HTU21D;54120;53.504;49.426;2023-04-15T08:43:52;5.53;17.73
67192;HTU21D;54120;53.504;49.426;2023-04-15T08:46:20;5.54;17.69
67192;HTU21D;54120;53.504;49.426;2023-04-15T08:48:47;5.47;17.38
67192;HTU21D;54120;53.504;49.426;2023-04-15T08:51:15;5.36;16.46
67192;HTU21D;54120;53.504;49.426;2023-04-15T08:53:45;5.43;16.35
67192;HTU21D;54120;53.504;49.426;2023-04-15T08:56:14;5.52;16.69
67192;HTU21D;54120;53.504;49.426;2023-04-15T08:58:43;5.87;16.88
67192;HTU21D;54120;53.504;49.426;2023-04-15T09:01:11;6.05;15.79
67192;HTU21D;54120;53.504;49.426;2023-04-15T09:03:38;5.99;15.96
67192;HTU21D;54120;53.504;49.426;2023-04-15T09:06:05;5.76;16.11
67192;HTU21D;54120;53.504;49.426;2023-04-15T09:08:32;5.86;16.64
67192;HTU21D;54120;53.504;49.426;2023-04-15T09:11:01;6.05;16.51
67192;HTU21D;54120;53.504;49.426;2023-04-15T09:13:28;5.84;16.69
67192;HTU21D;54120;53.504;49.426;2023-04-15T09:15:55;6.28;16.10
67192;HTU21D;54120;53.504;49.426;2023-04-15T09:18:40;6.02;14.94
67192;HTU21D;54120;53.504;49.426;2023-04-15T09:21:11;5.98;15.64
67192;HTU21D;54120;53.504;49.426;2023-04-15T09:23:56;5.89;15.14
67192;HTU21D;54120;53.504;49.426;2023-04-15T09:26:36;5.93;14.68
67192;HTU21D;54120;53.504;49.426;2023-04-15T09:29:11;6.16;15.50
67192;HTU21D;54120;53.504;49.426;2023-04-15T09:31:40;6.59;15.55
67192;HTU21D;54120;53.504;49.426;2023-04-15T09:34:07;6.75;15.04
67192;HTU21D;54120;53.504;49.426;2023-04-15T09:36:53;6.60;14.56
67192;HTU21D;54120;53.504;49.426;2023-04-15T09:39:19;6.61;14.91
67192;HTU21D;54120;53.504;49.426;2023-04-15T09:41:46;6.60;14.42
67192;HTU21D;54120;53.504;49.426;2023-04-15T09:44:25;6.84;14.05
67192;HTU21D;54120;53.504;49.426;2023-04-15T09:46:51;6.97;13.58
67192;HTU21D;54120;53.504;49.426;2023-04-15T09:49:17;6.58;13.46
67192;HTU21D;54120;53.504;49.426;2023-04-15T09:51:44;6.33;14.52
67192;HTU21D;54120;53.504;49.426;2023-04-15T09:54:10;6.45;15.29
67192;HTU21D;54120;53.504;49.426;2023-04-15T09:56:37;6.72;13.76
67192;HTU21D;54120;53.504;49.426;2023-04-15T09:59:07;6.70;14.47
67192;HTU21D;54120;53.504;49.426;2023-04-15T10:01:34;6.87;14.04
67192;HTU21D;54120;53.504;49.426;2023-04-15T10:04:04;6.83;13.96
67192;HTU21D;54120;53.504;49.426;2023-04-15T10:06:30;6.72;13.49
67192;HTU21D;54120;53.504;49.426;2023-04-15T10:08:59;6.49;14.47
67192;HTU21D;54120;53.504;49.426;2023-04-15T10:11:29;6.57;14.60
67192;HTU21D;54120;53.504;49.426;2023-04-15T10:13:55;6.72;13.30
67192;HTU21D;54120;53.504;49.426;2023-04-15T10:16:27;6.84;13.38
67192;HTU21D;54120;53.504;49.426;2023-04-15T10:18:54;6.84;13.51
67192;HTU21D;54120;53.504;49.426;2023-04-15T10:21:21;6.85;13.69
67192;HTU21D;54120;53.504;49.426;2023-04-15T10:23:48;6.96;13.57
67192;HTU21D;54120;53.504;49.426;2023-04-15T10:26:15;6.84;13.18
67192;HTU21D;54120;53.504;49.426;2023-04-15T10:28:45;6.70;13.82
67192;HTU21D;54120;53.504;49.426;2023-04-15T10:31:14;7.10;14.23
67192;HTU21D;54120;53.504;49.426;2023-04-15T10:33:42;7.41;14.13
67192;HTU21D;54120;53.504;49.426;2023-04-15T10:36:09;7.17;14.36
67192;HTU21D;54120;53.504;49.426;2023-04-15T10:38:41;7.14;14.19
67192;HTU21D;54120;53.504;49.426;2023-04-15T10:41:24;7.05;13.16
67192;HTU21D;54120;53.504;49.426;2023-04-15T10:44:01;7.24;13.97
67192;HTU21D;54120;53.504;49.426;2023-04-15T10:46:38;7.26;14.41
67192;HTU21D;54120;53.504;49.426;2023-04-15T10:49:23;7.20;15.03
67192;HTU21D;54120;53.504;49.426;2023-04-15T10:51:56;7.35;14.62
67192;HTU21D;54120;53.504;49.426;2023-04-15T11:00:12;7.17;14.35
67192;HTU21D;54120;53.504;49.426;2023-04-15T11:02:57;7.04;14.04
67192;HTU21D;54120;53.504;49.426;2023-04-15T11:08:11;7.41;13.59
67192;HTU21D;54120;53.504;49.426;2023-04-15T11:13:13;7.68;14.06
67192;HTU21D;54120;53.504;49.426;2023-04-15T11:15:45;7.59;13.81
67192;HTU21D;54120;53.504;49.426;2023-04-15T11:20:43;7.37;12.87
67192;HTU21D;54120;53.504;49.426;2023-04-15T11:23:10;7.70;13.59
67192;HTU21D;54120;53.504;49.426;2023-04-15T11:25:36;7.74;13.04
67192;HTU21D;54120;53.504;49.426;2023-04-15T11:28:03;7.68;13.36
67192;HTU21D;54120;53.504;49.426;2023-04-15T11:30:34;7.64;13.36
67192;HTU21D;54120;53.504;49.426;2023-04-15T11:33:07;7.84;14.24
67192;HTU21D;54120;53.504;49.426;2023-04-15T11:35:34;7.73;11.78
67192;HTU21D;54120;53.504;49.426;2023-04-15T11:38:07;7.59;10.18
67192;HTU21D;54120;53.504;49.426;2023-04-15T11:40:33;7.41;11.41
67192;HTU21D;54120;53.504;49.426;2023-04-15T11:43:10;7.56;12.32
67192;HTU21D;54120;53.504;49.426;2023-04-15T11:45:37;7.68;13.07
67192;HTU21D;54120;53.504;49.426;2023-04-15T11:48:05;7.58;12.39
67192;HTU21D;54120;53.504;49.426;2023-04-15T11:50:32;7.71;12.69
67192;HTU21D;54120;53.504;49.426;2023-04-15T11:53:00;7.93;12.34
67192;HTU21D;54120;53.504;49.426;2023-04-15T11:55:27;7.92;12.12
67192;HTU21D;54120;53.504;49.426;2023-04-15T12:00:36;7.83;12.03
67192;HTU21D;54120;53.504;49.426;2023-04-15T12:03:18;7.63;13.25
67192;HTU21D;54120;53.504;49.426;2023-04-15T12:06:07;7.61;13.28
67192;HTU21D;54120;53.504;49.426;2023-04-15T12:11:29;7.75;12.50
67192;HTU21D;54120;53.504;49.426;2023-04-15T12:16:23;8.14;12.68
67192;HTU21D;54120;53.504;49.426;2023-04-15T12:18:51;8.05;13.06
67192;HTU21D;54120;53.504;49.426;2023-04-15T12:21:19;8.03;13.12
67192;HTU21D;54120;53.504;49.426;2023-04-15T12:26:16;7.84;13.41
67192;HTU21D;54120;53.504;49.426;2023-04-15T12:28:43;8.04;13.22
67192;HTU21D;54120;53.504;49.426;2023-04-15T12:31:10;8.23;13.35
67192;HTU21D;54120;53.504;49.426;2023-04-15T12:33:37;8.22;12.56
67192;HTU21D;54120;53.504;49.426;2023-04-15T12:36:05;8.03;12.25
67192;HTU21D;54120;53.504;49.426;2023-04-15T12:38:31;7.99;12.72
67192;HTU21D;54120;53.504;49.426;2023-04-15T12:40:57;7.94;13.13
67192;HTU21D;54120;53.504;49.426;2023-04-15T12:43:24;8.01;12.85
67192;HTU21D;54120;53.504;49.426;2023-04-15T12:45:50;7.75;13.74
67192;HTU21D;54120;53.504;49.426;2023-04-15T12:48:16;7.79;13.21
67192;HTU21D;54120;53.504;49.426;2023-04-15T12:50:42;7.60;12.84
67192;HTU21D;54120;53.504;49.426;2023-04-15T12:53:08;7.83;13.58
67192;HTU21D;54120;53.504;49.426;2023-04-15T12:55:34;7.81;12.10
67192;HTU21D;54120;53.504;49.426;2023-04-15T12:58:00;7.67;13.02
67192;HTU21D;54120;53.504;49.426;2023-04-15T13:00:27;7.93;13.17
67192;HTU21D;54120;53.504;49.426;2023-04-15T13:02:53;8.08;13.09
67192;HTU21D;54120;53.504;49.426;2023-04-15T13:05:19;8.18;12.51
67192;HTU21D;54120;53.504;49.426;2023-04-15T13:07:45;7.83;12.62
67192;HTU21D;54120;53.504;49.426;2023-04-15T13:10:11;7.81;12.63
67192;HTU21D;54120;53.504;49.426;2023-04-15T13:12:37;7.68;12.94
67192;HTU21D;54120;53.504;49.426;2023-04-15T13:15:04;7.79;13.62
67192;HTU21D;54120;53.504;49.426;2023-04-15T13:17:30;7.83;13.62
67192;HTU21D;54120;53.504;49.426;2023-04-15T13:19:56;7.99;13.18
67192;HTU21D;54120;53.504;49.426;2023-04-15T13:22:22;7.98;12.55
67192;HTU21D;54120;53.504;49.426;2023-04-15T13:24:49;7.76;12.28
67192;HTU21D;54120;53.504;49.426;2023-04-15T13:27:16;7.78;12.51
67192;HTU21D;54120;53.504;49.426;2023-04-15T13:29:42;7.82;12.79
67192;HTU21D;54120;53.504;49.426;2023-04-15T13:32:08;7.79;12.61
67192;HTU21D;54120;53.504;49.426;2023-04-15T13:34:34;7.75;12.66
67192;HTU21D;54120;53.504;49.426;2023-04-15T13:37:07;7.70;13.23
67192;HTU21D;54120;53.504;49.426;2023-04-15T13:39:33;7.72;12.43
67192;HTU21D;54120;53.504;49.426;2023-04-15T13:42:00;7.77;12.51
67192;HTU21D;54120;53.504;49.426;2023-04-15T13:44:27;7.79;12.67
67192;HTU21D;54120;53.504;49.426;2023-04-15T13:46:54;7.83;12.59
67192;HTU21D;54120;53.504;49.426;2023-04-15T13:49:20;7.54;12.57
67192;HTU21D;54120;53.504;49.426;2023-04-15T13:51:46;7.54;12.56
67192;HTU21D;54120;53.504;49.426;2023-04-15T13:54:13;7.50;12.72
67192;HTU21D;54120;53.504;49.426;2023-04-15T13:56:39;7.59;13.04
67192;HTU21D;54120;53.504;49.426;2023-04-15T13:59:06;7.62;12.99
67192;HTU21D;54120;53.504;49.426;2023-04-15T14:01:34;7.56;12.71
67192;HTU21D;54120;53.504;49.426;2023-04-15T14:04:00;7.49;12.55
67192;HTU21D;54120;53.504;49.426;2023-04-15T14:06:27;7.48;12.39
67192;HTU21D;54120;53.504;49.426;2023-04-15T14:08:56;7.54;12.57
67192;HTU21D;54120;53.504;49.426;2023-04-15T14:11:22;7.55;12.61
67192;HTU21D;54120;53.504;49.426;2023-04-15T14:13:51;7.44;12.81
67192;HTU21D;54120;53.504;49.426;2023-04-15T14:16:17;7.38;11.86
67192;HTU21D;54120;53.504;49.426;2023-04-15T14:18:44;7.37;12.17
67192;HTU21D;54120;53.504;49.426;2023-04-15T14:21:10;7.28;12.31
67192;HTU21D;54120;53.504;49.426;2023-04-15T14:23:37;7.30;12.17
67192;HTU21D;54120;53.504;49.426;2023-04-15T14:26:03;7.27;12.33
67192;HTU21D;54120;53.504;49.426;2023-04-15T14:28:29;7.26;12.53
67192;HTU21D;54120;53.504;49.426;2023-04-15T14:30:57;7.25;13.17
67192;HTU21D;54120;53.504;49.426;2023-04-15T14:33:23;7.25;12.70
67192;HTU21D;54120;53.504;49.426;2023-04-15T14:35:50;7.22;12.50
67192;HTU21D;54120;53.504;49.426;2023-04-15T14:38:16;7.16;12.48
67192;HTU21D;54120;53.504;49.426;2023-04-15T14:40:44;7.10;12.94
67192;HTU21D;54120;53.504;49.426;2023-04-15T14:43:10;7.03;12.81
67192;HTU21D;54120;53.504;49.426;2023-04-15T14:45:37;6.97;13.03
67192;HTU21D;54120;53.504;49.426;2023-04-15T14:48:04;6.94;13.10
67192;HTU21D;54120;53.504;49.426;2023-04-15T14:50:31;6.91;13.40
67192;HTU21D;54120;53.504;49.426;2023-04-15T14:52:58;6.89;13.47
67192;HTU21D;54120;53.504;49.426;2023-04-15T14:55:24;6.88;13.74
67192;HTU21D;54120;53.504;49.426;2023-04-15T14:57:50;6.82;13.81
67192;HTU21D;54120;53.504;49.426;2023-04-15T15:00:17;6.78;13.78
67192;HTU21D;54120;53.504;49.426;2023-04-15T15:02:43;6.73;13.93
67192;HTU21D;54120;53.504;49.426;2023-04-15T15:05:10;6.63;14.27
67192;HTU21D;54120;53.504;49.426;2023-04-15T15:07:37;6.57;14.33
67192;HTU21D;54120;53.504;49.426;2023-04-15T15:10:04;6.54;14.11
67192;HTU21D;54120;53.504;49.426;2023-04-15T15:12:32;6.53;14.29
67192;HTU21D;54120;53.504;49.426;2023-04-15T15:14:58;6.42;14.45
67192;HTU21D;54120;53.504;49.426;2023-04-15T15:17:25;6.35;14.68
67192;HTU21D;54120;53.504;49.426;2023-04-15T15:19:51;6.27;14.93
67192;HTU21D;54120;53.504;49.426;2023-04-15T15:22:18;6.20;15.00
67192;HTU21D;54120;53.504;49.426;2023-04-15T15:24:44;6.16;15.29
67192;HTU21D;54120;53.504;49.426;2023-04-15T15:27:10;6.14;15.44
67192;HTU21D;54120;53.504;49.426;2023-04-15T15:29:37;6.12;15.50
67192;HTU21D;54120;53.504;49.426;2023-04-15T15:32:03;6.05;15.74
67192;HTU21D;54120;53.504;49.426;2023-04-15T15:34:30;6.00;15.93
67192;HTU21D;54120;53.504;49.426;2023-04-15T15:36:56;5.92;16.50
67192;HTU21D;54120;53.504;49.426;2023-04-15T15:39:22;5.85;16.42